This is the latest recevied weather packets stored in our database for station/object KB9YVI-11. If no packets are shown the sender has not sent any weather packets the latest 1 day(s).
| Time | Temp. | Humidity | Pressure | Rain* | Wind** | Luminosity | Snow |
|---|---|---|---|---|---|---|---|
| 1778023226 | 8.89° C | 100% | 0 hPa | 5.59 mm | 0 m/s | - | - |
| 1778022926 | 8.89° C | 100% | 0 hPa | 5.08 mm | 2.68 m/s, 36° | - | - |
| 1778022626 | 8.89° C | 100% | 0 hPa | 4.32 mm | 2.24 m/s, 329° | - | - |
| 1778022326 | 9.44° C | 100% | 0 hPa | 5.33 mm | 2.24 m/s, 137° | - | - |
| 1778021726 | 9.44° C | 100% | 0 hPa | 5.59 mm | 0 m/s | - | - |
| 1778020225 | 10° C | 100% | 0 hPa | 5.08 mm | 0 m/s | - | - |
| 1778018426 | 11.11° C | 100% | 0 hPa | 5.84 mm | 1.34 m/s, 84° | - | - |
| 1778018126 | 11.67° C | 100% | 0 hPa | 5.59 mm | 0.89 m/s, 36° | - | - |
| 1778017226 | 12.78° C | 100% | 0 hPa | 4.32 mm | 0.89 m/s, 343° | - | - |
| 1778016926 | 12.78° C | 100% | 0 hPa | 3.81 mm | 3.13 m/s, 300° | - | - |
| 1778016625 | 13.33° C | 100% | 0 hPa | 3.56 mm | 1.34 m/s, 358° | - | - |
| 1778016326 | 13.89° C | 100% | 0 hPa | 3.3 mm | 0.45 m/s, 296° | - | - |
| 1778016026 | 14.44° C | 100% | 0 hPa | 2.54 mm | 3.13 m/s, 317° | - | - |
| 1778015726 | 14.44° C | 100% | 0 hPa | 2.29 mm | 2.24 m/s, 278° | - | - |
| 1778015426 | 14.44° C | 100% | 0 hPa | 2.03 mm | 0.89 m/s, 233° | - | - |
| 1778014526 | 14.44° C | 100% | 0 hPa | 1.02 mm | 0.89 m/s, 262° | - | - |
| 1778014226 | 14.44° C | 100% | 0 hPa | 0.76 mm | 0.45 m/s, 271° | - | - |
| 1778013025 | 15° C | 100% | 0 hPa | 0.25 mm | 0.45 m/s, 265° | - | - |
| 1778012127 | 15° C | 100% | 0 hPa | 0 mm | 2.68 m/s, 226° | - | - |
| 1778011527 | 15° C | 100% | 0 hPa | 0 mm | 0.89 m/s, 244° | - | - |
| 1778010927 | 15° C | 100% | 0 hPa | 0 mm | 0.45 m/s, 243° | - | - |
| 1778010627 | 15° C | 100% | 0 hPa | 0 mm | 1.34 m/s, 272° | - | - |
| 1778010327 | 15° C | 100% | 0 hPa | 0 mm | 2.68 m/s, 217° | - | - |
| 1778010027 | 15° C | 100% | 0 hPa | 0 mm | 0.45 m/s, 215° | - | - |
| 1778009425 | 15° C | 100% | 0 hPa | 0 mm | 2.24 m/s, 237° | - | - |
* Rain latest hour (hover to see other rain measurements)
** Current wind speed in m/s (hover to see current wind gust speed)